FLIGHT INFORMATION
United Airlines

UAL1121

At Arrival Gate

KDEN
 KORD
DATE: 2019-11-22
GATE: B51
GATE DEPARTURE: 21:56
TAKEOFF: 22:16
DATE: 2019-11-23
GATE:  -
LANDING: 00:08
GATE ARRIVAL: 00:18
FLIGHT DATA
Crew: MICHAEL ROTH
Speed: 448 kts Altitude: 35000 ft
Stage Length: 770 nm
Route: 
Block Time: 2.4 Flight Time: 1.9
Fuel Used: 11255 LB
TRACK DATA
50000 FT1000 KTAltitudeSpeed
AIRCRAFT INFORMATION
Aircraft Type: B738SSW
Registration: N37267
SELCAL:  MSN/LN: 31586 / 939
Operator: UNITED AIRLINES
Flights: 26 Block Time: 66.1 Flight Time: 59.4
Fuel Used: 394987 LB
  • DEPARTURE INFORMATION
    Date: 2019-11-22
    Airport: KDEN
    Gate: B51
    Gate Departure: 21:56
    Takeoff: 22:16
    ARRIVAL INFORMATION
    Date: 2019-11-23
    Airport: KORD
    Gate:  -
    Landing: 00:08
    Gate Arrival: 00:18
  • FLIGHT DATA
    Crew: MICHAEL ROTH
    Speed: 448 kts Altitude: 35000 ft
    Stage Length: 416 nm
    Route: 
    Block Time: 2.4 Flight Time: 1.9
    Fuel Used: 11255 LB
  • AIRCRAFT INFORMATION
    Aircraft Type: B738SSW
    Registration: N37267
    SELCAL:  MSN/LN: 31586 / 939
    Operator: United Airlines
    Flights: 26 Block Time: 66.1 Flight Time: 59.4
    Fuel Used: 394987 LB

DATALINK LOG | Newest first | Current as of: 2020-05-25 14:58:22
LABEL ID SEQUENCE CONTENT Dn/Up
QD180100:18 6.7▼ Dn
QC095600:08▼ Dn
GA4734ADVANCED GATE ASSIGNMENTS NOT YET AVAILABLE AT THIS AIRPORT▲ Up
GR4741KORD --:-- MAAS 00 YP/UM 00/00 WCHR/S/C 00/00/00 HI-VAL YES▼ Dn
2U3146KORD 220451Z 32010KT 10SM OVC024 04/M01 A2998 RMK AO2 SLP155 T00391006 $▲ Up
2S3146KORD▼ Dn
464154/OV ZIRKL /TM 2240 /FL350 /TP B738 /SK OVC /TA -53 /WV 236/37 /RM NONE▼ Dn
QB162722:16▼ Dn
QA560621:56 18▼ Dn
2U5151KDEN 220253Z 06007KT 10SM -SN OVC006 M03/M03 A3011 RMK AO2 SNE26B52 SLP219 P0000 60000 T10281033 51005▲ Up
2S5151KDEN▼ Dn
A34813CLEARED TO KORD VIA EMMYS6 ZIRKL PWE IRK BENKY4. SQUAWK 2476.▲ Up
Q04659[LINK ACK]▲ Up
Q04522[LINK TEST]▼ Dn


AIRCRAFT HISTORY